sensor_id;sensor_type;location;lat;lon;timestamp;P1;durP1;ratioP1;P2;durP2;ratioP2
22778;SDS011;11556;51.194;3.800;2022-12-22T00:02:43;52.83;;;31.08;;
22778;SDS011;11556;51.194;3.800;2022-12-22T00:05:27;52.80;;;31.73;;
22778;SDS011;11556;51.194;3.800;2022-12-22T00:08:12;53.30;;;32.97;;
22778;SDS011;11556;51.194;3.800;2022-12-22T00:10:56;57.42;;;35.33;;
22778;SDS011;11556;51.194;3.800;2022-12-22T00:16:28;54.13;;;33.53;;
22778;SDS011;11556;51.194;3.800;2022-12-22T00:19:18;55.53;;;33.00;;
22778;SDS011;11556;51.194;3.800;2022-12-22T00:22:05;60.30;;;33.40;;
22778;SDS011;11556;51.194;3.800;2022-12-22T00:24:57;57.58;;;33.42;;
22778;SDS011;11556;51.194;3.800;2022-12-22T00:27:41;54.05;;;31.73;;
22778;SDS011;11556;51.194;3.800;2022-12-22T00:30:25;53.90;;;32.78;;
22778;SDS011;11556;51.194;3.800;2022-12-22T00:33:10;56.08;;;32.83;;
22778;SDS011;11556;51.194;3.800;2022-12-22T00:35:57;57.35;;;34.08;;
22778;SDS011;11556;51.194;3.800;2022-12-22T00:38:41;56.72;;;33.72;;
22778;SDS011;11556;51.194;3.800;2022-12-22T00:41:25;62.78;;;34.58;;
22778;SDS011;11556;51.194;3.800;2022-12-22T00:44:09;65.63;;;36.38;;
22778;SDS011;11556;51.194;3.800;2022-12-22T00:46:53;63.35;;;35.38;;
22778;SDS011;11556;51.194;3.800;2022-12-22T00:49:37;58.30;;;33.60;;
22778;SDS011;11556;51.194;3.800;2022-12-22T00:52:27;64.63;;;35.53;;
22778;SDS011;11556;51.194;3.800;2022-12-22T00:55:12;64.63;;;35.97;;
22778;SDS011;11556;51.194;3.800;2022-12-22T00:57:58;63.30;;;34.90;;
22778;SDS011;11556;51.194;3.800;2022-12-22T01:00:43;62.70;;;34.92;;
22778;SDS011;11556;51.194;3.800;2022-12-22T01:03:27;67.95;;;36.95;;
22778;SDS011;11556;51.194;3.800;2022-12-22T01:06:11;69.82;;;36.30;;
22778;SDS011;11556;51.194;3.800;2022-12-22T01:08:56;58.80;;;34.17;;
22778;SDS011;11556;51.194;3.800;2022-12-22T01:11:40;62.33;;;34.67;;
22778;SDS011;11556;51.194;3.800;2022-12-22T01:14:24;60.83;;;29.23;;
22778;SDS011;11556;51.194;3.800;2022-12-22T01:17:09;59.35;;;29.42;;
22778;SDS011;11556;51.194;3.800;2022-12-22T01:19:53;57.28;;;29.58;;
22778;SDS011;11556;51.194;3.800;2022-12-22T01:22:37;80.80;;;31.50;;
22778;SDS011;11556;51.194;3.800;2022-12-22T01:25:21;54.28;;;29.50;;
22778;SDS011;11556;51.194;3.800;2022-12-22T01:28:08;60.83;;;28.88;;
22778;SDS011;11556;51.194;3.800;2022-12-22T01:31:00;52.78;;;28.20;;
22778;SDS011;11556;51.194;3.800;2022-12-22T01:34:04;76.45;;;31.23;;
22778;SDS011;11556;51.194;3.800;2022-12-22T01:36:50;60.13;;;28.67;;
22778;SDS011;11556;51.194;3.800;2022-12-22T01:39:34;64.25;;;30.05;;
22778;SDS011;11556;51.194;3.800;2022-12-22T01:42:18;57.90;;;30.00;;
22778;SDS011;11556;51.194;3.800;2022-12-22T01:45:19;60.25;;;28.13;;
22778;SDS011;11556;51.194;3.800;2022-12-22T01:48:03;55.55;;;26.70;;
22778;SDS011;11556;51.194;3.800;2022-12-22T01:50:48;50.33;;;26.48;;
22778;SDS011;11556;51.194;3.800;2022-12-22T01:53:32;47.42;;;26.42;;
22778;SDS011;11556;51.194;3.800;2022-12-22T01:56:17;59.90;;;30.35;;
22778;SDS011;11556;51.194;3.800;2022-12-22T01:59:01;61.97;;;29.98;;
22778;SDS011;11556;51.194;3.800;2022-12-22T02:01:47;60.88;;;29.48;;
22778;SDS011;11556;51.194;3.800;2022-12-22T02:04:33;85.90;;;29.60;;
22778;SDS011;11556;51.194;3.800;2022-12-22T02:10:32;76.53;;;33.40;;
22778;SDS011;11556;51.194;3.800;2022-12-22T02:17:04;61.35;;;29.40;;
22778;SDS011;11556;51.194;3.800;2022-12-22T02:20:06;58.13;;;28.40;;
22778;SDS011;11556;51.194;3.800;2022-12-22T02:26:58;66.53;;;29.13;;
22778;SDS011;11556;51.194;3.800;2022-12-22T02:29:53;58.70;;;27.13;;
22778;SDS011;11556;51.194;3.800;2022-12-22T02:32:41;53.17;;;25.05;;
22778;SDS011;11556;51.194;3.800;2022-12-22T02:35:27;356.35;;;33.97;;
22778;SDS011;11556;51.194;3.800;2022-12-22T02:44:15;1162.68;;;56.42;;
22778;SDS011;11556;51.194;3.800;2022-12-22T02:47:17;231.48;;;25.98;;
22778;SDS011;11556;51.194;3.800;2022-12-22T02:50:18;394.90;;;27.25;;
22778;SDS011;11556;51.194;3.800;2022-12-22T02:53:11;97.32;;;17.48;;
22778;SDS011;11556;51.194;3.800;2022-12-22T02:56:01;515.10;;;30.73;;
22778;SDS011;11556;51.194;3.800;2022-12-22T02:58:48;829.80;;;40.08;;
22778;SDS011;11556;51.194;3.800;2022-12-22T03:01:32;136.95;;;18.05;;
22778;SDS011;11556;51.194;3.800;2022-12-22T03:04:16;178.90;;;19.45;;
22778;SDS011;11556;51.194;3.800;2022-12-22T03:07:00;67.72;;;18.35;;
22778;SDS011;11556;51.194;3.800;2022-12-22T03:09:44;63.55;;;18.52;;
22778;SDS011;11556;51.194;3.800;2022-12-22T03:12:28;177.00;;;21.90;;
22778;SDS011;11556;51.194;3.800;2022-12-22T03:15:12;534.75;;;30.30;;
22778;SDS011;11556;51.194;3.800;2022-12-22T03:18:03;157.65;;;18.98;;
22778;SDS011;11556;51.194;3.800;2022-12-22T03:20:49;492.67;;;29.90;;
22778;SDS011;11556;51.194;3.800;2022-12-22T03:23:34;100.95;;;20.05;;
22778;SDS011;11556;51.194;3.800;2022-12-22T03:26:18;71.25;;;23.13;;
22778;SDS011;11556;51.194;3.800;2022-12-22T03:28:44;105.82;;;24.38;;
22778;SDS011;11556;51.194;3.800;2022-12-22T03:31:09;165.35;;;24.63;;
22778;SDS011;11556;51.194;3.800;2022-12-22T03:33:36;233.45;;;22.67;;
22778;SDS011;11556;51.194;3.800;2022-12-22T03:36:02;201.82;;;22.58;;
22778;SDS011;11556;51.194;3.800;2022-12-22T03:38:28;177.98;;;23.02;;
22778;SDS011;11556;51.194;3.800;2022-12-22T03:40:53;304.77;;;25.02;;
22778;SDS011;11556;51.194;3.800;2022-12-22T03:43:19;95.05;;;20.50;;
22778;SDS011;11556;51.194;3.800;2022-12-22T03:46:03;51.47;;;20.88;;
22778;SDS011;11556;51.194;3.800;2022-12-22T03:48:39;60.75;;;21.98;;
22778;SDS011;11556;51.194;3.800;2022-12-22T03:51:05;53.70;;;21.25;;
22778;SDS011;11556;51.194;3.800;2022-12-22T03:53:30;48.47;;;20.05;;
22778;SDS011;11556;51.194;3.800;2022-12-22T03:55:56;73.55;;;22.67;;
22778;SDS011;11556;51.194;3.800;2022-12-22T03:58:22;70.65;;;24.35;;
22778;SDS011;11556;51.194;3.800;2022-12-22T04:00:47;87.30;;;27.15;;
22778;SDS011;11556;51.194;3.800;2022-12-22T04:03:13;102.60;;;27.90;;
22778;SDS011;11556;51.194;3.800;2022-12-22T04:05:39;154.32;;;29.58;;
22778;SDS011;11556;51.194;3.800;2022-12-22T04:08:04;85.15;;;27.92;;
22778;SDS011;11556;51.194;3.800;2022-12-22T04:10:30;114.05;;;30.38;;
22778;SDS011;11556;51.194;3.800;2022-12-22T04:13:15;100.82;;;28.85;;
22778;SDS011;11556;51.194;3.800;2022-12-22T04:15:41;127.15;;;30.90;;
22778;SDS011;11556;51.194;3.800;2022-12-22T04:18:06;96.03;;;29.98;;
22778;SDS011;11556;51.194;3.800;2022-12-22T04:20:32;98.18;;;29.63;;
22778;SDS011;11556;51.194;3.800;2022-12-22T04:22:58;114.03;;;30.52;;
22778;SDS011;11556;51.194;3.800;2022-12-22T04:25:24;185.80;;;34.13;;
22778;SDS011;11556;51.194;3.800;2022-12-22T04:27:50;142.82;;;31.17;;
22778;SDS011;11556;51.194;3.800;2022-12-22T04:30:16;242.65;;;34.60;;
22778;SDS011;11556;51.194;3.800;2022-12-22T04:32:42;174.38;;;33.33;;
22778;SDS011;11556;51.194;3.800;2022-12-22T04:35:08;227.82;;;36.03;;
22778;SDS011;11556;51.194;3.800;2022-12-22T04:37:34;262.45;;;37.10;;
22778;SDS011;11556;51.194;3.800;2022-12-22T04:39:59;253.88;;;37.17;;
22778;SDS011;11556;51.194;3.800;2022-12-22T04:42:25;130.98;;;31.55;;
22778;SDS011;11556;51.194;3.800;2022-12-22T04:44:51;199.48;;;35.83;;
22778;SDS011;11556;51.194;3.800;2022-12-22T04:47:16;199.65;;;37.35;;
22778;SDS011;11556;51.194;3.800;2022-12-22T04:49:42;159.05;;;35.83;;
22778;SDS011;11556;51.194;3.800;2022-12-22T04:52:08;139.68;;;34.92;;
22778;SDS011;11556;51.194;3.800;2022-12-22T04:54:33;199.98;;;37.13;;
22778;SDS011;11556;51.194;3.800;2022-12-22T04:56:59;155.13;;;34.53;;
22778;SDS011;11556;51.194;3.800;2022-12-22T04:59:25;236.80;;;38.38;;
22778;SDS011;11556;51.194;3.800;2022-12-22T05:01:50;161.13;;;34.75;;
22778;SDS011;11556;51.194;3.800;2022-12-22T05:04:16;172.07;;;35.50;;
22778;SDS011;11556;51.194;3.800;2022-12-22T05:06:42;254.77;;;39.38;;
22778;SDS011;11556;51.194;3.800;2022-12-22T05:09:08;170.05;;;38.38;;
22778;SDS011;11556;51.194;3.800;2022-12-22T05:11:34;175.10;;;39.28;;
22778;SDS011;11556;51.194;3.800;2022-12-22T05:14:00;219.23;;;41.03;;
22778;SDS011;11556;51.194;3.800;2022-12-22T05:16:25;159.80;;;38.83;;
22778;SDS011;11556;51.194;3.800;2022-12-22T05:18:51;162.40;;;36.85;;
22778;SDS011;11556;51.194;3.800;2022-12-22T05:21:17;184.35;;;40.72;;
22778;SDS011;11556;51.194;3.800;2022-12-22T05:23:45;252.60;;;41.83;;
22778;SDS011;11556;51.194;3.800;2022-12-22T05:26:11;161.77;;;38.17;;
22778;SDS011;11556;51.194;3.800;2022-12-22T05:28:38;184.63;;;39.53;;
22778;SDS011;11556;51.194;3.800;2022-12-22T05:31:15;158.45;;;38.50;;
22778;SDS011;11556;51.194;3.800;2022-12-22T05:33:43;161.07;;;39.70;;
22778;SDS011;11556;51.194;3.800;2022-12-22T05:36:09;204.82;;;42.00;;
22778;SDS011;11556;51.194;3.800;2022-12-22T05:38:35;188.70;;;40.35;;
22778;SDS011;11556;51.194;3.800;2022-12-22T05:41:00;187.13;;;41.17;;
22778;SDS011;11556;51.194;3.800;2022-12-22T05:43:26;196.98;;;43.05;;
22778;SDS011;11556;51.194;3.800;2022-12-22T05:45:52;196.32;;;41.72;;
22778;SDS011;11556;51.194;3.800;2022-12-22T05:48:17;173.18;;;40.25;;
22778;SDS011;11556;51.194;3.800;2022-12-22T05:50:43;189.10;;;39.90;;
22778;SDS011;11556;51.194;3.800;2022-12-22T05:53:09;175.57;;;42.17;;
22778;SDS011;11556;51.194;3.800;2022-12-22T05:55:34;196.35;;;42.65;;
22778;SDS011;11556;51.194;3.800;2022-12-22T05:58:00;217.55;;;41.60;;
22778;SDS011;11556;51.194;3.800;2022-12-22T06:00:26;196.32;;;42.67;;
22778;SDS011;11556;51.194;3.800;2022-12-22T06:02:54;210.10;;;41.40;;
22778;SDS011;11556;51.194;3.800;2022-12-22T06:05:20;197.93;;;41.20;;
22778;SDS011;11556;51.194;3.800;2022-12-22T06:07:45;186.80;;;41.17;;
22778;SDS011;11556;51.194;3.800;2022-12-22T06:10:11;197.13;;;42.03;;
22778;SDS011;11556;51.194;3.800;2022-12-22T06:12:38;205.38;;;42.28;;
22778;SDS011;11556;51.194;3.800;2022-12-22T06:15:05;207.35;;;43.58;;
22778;SDS011;11556;51.194;3.800;2022-12-22T06:17:31;210.45;;;42.60;;
22778;SDS011;11556;51.194;3.800;2022-12-22T06:19:57;196.40;;;42.30;;
22778;SDS011;11556;51.194;3.800;2022-12-22T06:22:22;204.18;;;44.53;;
22778;SDS011;11556;51.194;3.800;2022-12-22T06:24:48;207.93;;;43.55;;
22778;SDS011;11556;51.194;3.800;2022-12-22T06:27:13;226.75;;;44.17;;
22778;SDS011;11556;51.194;3.800;2022-12-22T06:29:39;220.52;;;43.97;;
22778;SDS011;11556;51.194;3.800;2022-12-22T06:32:04;263.98;;;45.40;;
22778;SDS011;11556;51.194;3.800;2022-12-22T06:34:30;259.60;;;45.35;;
22778;SDS011;11556;51.194;3.800;2022-12-22T06:36:56;252.25;;;44.08;;
22778;SDS011;11556;51.194;3.800;2022-12-22T06:39:21;244.35;;;43.75;;
22778;SDS011;11556;51.194;3.800;2022-12-22T06:41:47;248.32;;;43.78;;
22778;SDS011;11556;51.194;3.800;2022-12-22T06:44:31;291.10;;;44.53;;
22778;SDS011;11556;51.194;3.800;2022-12-22T06:46:57;306.55;;;45.10;;
22778;SDS011;11556;51.194;3.800;2022-12-22T06:49:22;238.52;;;41.75;;
22778;SDS011;11556;51.194;3.800;2022-12-22T06:51:48;268.35;;;42.63;;
22778;SDS011;11556;51.194;3.800;2022-12-22T06:54:14;328.10;;;44.75;;
22778;SDS011;11556;51.194;3.800;2022-12-22T06:56:40;334.98;;;45.42;;
22778;SDS011;11556;51.194;3.800;2022-12-22T06:59:05;341.17;;;47.15;;
22778;SDS011;11556;51.194;3.800;2022-12-22T07:01:31;332.50;;;46.25;;
22778;SDS011;11556;51.194;3.800;2022-12-22T07:03:57;258.52;;;44.38;;
22778;SDS011;11556;51.194;3.800;2022-12-22T07:06:22;466.85;;;49.15;;
22778;SDS011;11556;51.194;3.800;2022-12-22T07:08:48;460.63;;;48.42;;
22778;SDS011;11556;51.194;3.800;2022-12-22T07:11:13;363.30;;;47.03;;
22778;SDS011;11556;51.194;3.800;2022-12-22T07:13:39;300.00;;;46.88;;
22778;SDS011;11556;51.194;3.800;2022-12-22T07:16:06;324.63;;;48.72;;
22778;SDS011;11556;51.194;3.800;2022-12-22T07:18:36;313.60;;;47.70;;
22778;SDS011;11556;51.194;3.800;2022-12-22T07:21:04;300.40;;;46.38;;
22778;SDS011;11556;51.194;3.800;2022-12-22T07:23:31;253.55;;;46.55;;
22778;SDS011;11556;51.194;3.800;2022-12-22T07:25:57;257.80;;;46.08;;
22778;SDS011;11556;51.194;3.800;2022-12-22T07:28:23;232.98;;;46.90;;
22778;SDS011;11556;51.194;3.800;2022-12-22T07:30:50;246.00;;;58.58;;
22778;SDS011;11556;51.194;3.800;2022-12-22T07:33:16;241.85;;;51.05;;
22778;SDS011;11556;51.194;3.800;2022-12-22T07:35:42;246.35;;;52.58;;
22778;SDS011;11556;51.194;3.800;2022-12-22T07:38:08;239.27;;;50.72;;
22778;SDS011;11556;51.194;3.800;2022-12-22T07:40:33;207.85;;;49.40;;
22778;SDS011;11556;51.194;3.800;2022-12-22T07:42:59;224.95;;;47.38;;
22778;SDS011;11556;51.194;3.800;2022-12-22T07:45:25;252.48;;;52.50;;
22778;SDS011;11556;51.194;3.800;2022-12-22T07:47:57;340.17;;;55.10;;
22778;SDS011;11556;51.194;3.800;2022-12-22T07:50:46;336.08;;;61.15;;
22778;SDS011;11556;51.194;3.800;2022-12-22T07:53:12;289.88;;;58.58;;
22778;SDS011;11556;51.194;3.800;2022-12-22T07:55:37;276.27;;;57.42;;
22778;SDS011;11556;51.194;3.800;2022-12-22T07:58:03;245.68;;;53.95;;
22778;SDS011;11556;51.194;3.800;2022-12-22T08:00:28;208.07;;;48.28;;
22778;SDS011;11556;51.194;3.800;2022-12-22T08:02:55;200.18;;;49.85;;
22778;SDS011;11556;51.194;3.800;2022-12-22T08:05:21;204.10;;;51.65;;
22778;SDS011;11556;51.194;3.800;2022-12-22T08:07:48;204.27;;;51.97;;
22778;SDS011;11556;51.194;3.800;2022-12-22T08:10:15;200.70;;;52.70;;
22778;SDS011;11556;51.194;3.800;2022-12-22T08:12:42;185.18;;;50.83;;
22778;SDS011;11556;51.194;3.800;2022-12-22T08:15:08;181.52;;;49.22;;
22778;SDS011;11556;51.194;3.800;2022-12-22T08:17:35;183.10;;;51.28;;
22778;SDS011;11556;51.194;3.800;2022-12-22T08:20:01;179.45;;;52.25;;
22778;SDS011;11556;51.194;3.800;2022-12-22T08:22:27;190.98;;;52.88;;
22778;SDS011;11556;51.194;3.800;2022-12-22T08:24:54;185.55;;;52.33;;
22778;SDS011;11556;51.194;3.800;2022-12-22T08:27:26;198.13;;;54.65;;
22778;SDS011;11556;51.194;3.800;2022-12-22T08:29:58;182.15;;;52.22;;
22778;SDS011;11556;51.194;3.800;2022-12-22T08:32:26;175.98;;;53.78;;
22778;SDS011;11556;51.194;3.800;2022-12-22T08:34:51;158.57;;;50.42;;
22778;SDS011;11556;51.194;3.800;2022-12-22T08:37:19;172.15;;;53.97;;
22778;SDS011;11556;51.194;3.800;2022-12-22T08:39:47;167.02;;;51.50;;
22778;SDS011;11556;51.194;3.800;2022-12-22T08:42:18;152.75;;;51.00;;
22778;SDS011;11556;51.194;3.800;2022-12-22T08:44:46;143.30;;;50.08;;
22778;SDS011;11556;51.194;3.800;2022-12-22T08:47:17;148.30;;;49.67;;
22778;SDS011;11556;51.194;3.800;2022-12-22T08:49:43;140.73;;;47.47;;
22778;SDS011;11556;51.194;3.800;2022-12-22T08:52:09;144.05;;;48.42;;
22778;SDS011;11556;51.194;3.800;2022-12-22T08:54:35;136.10;;;50.70;;
22778;SDS011;11556;51.194;3.800;2022-12-22T08:57:00;138.27;;;48.38;;
22778;SDS011;11556;51.194;3.800;2022-12-22T08:59:26;141.35;;;51.22;;
22778;SDS011;11556;51.194;3.800;2022-12-22T09:01:51;121.93;;;45.97;;
22778;SDS011;11556;51.194;3.800;2022-12-22T09:04:17;119.10;;;45.53;;
22778;SDS011;11556;51.194;3.800;2022-12-22T09:06:45;128.02;;;46.83;;
22778;SDS011;11556;51.194;3.800;2022-12-22T09:09:11;121.43;;;48.00;;
22778;SDS011;11556;51.194;3.800;2022-12-22T09:11:38;125.35;;;52.50;;
22778;SDS011;11556;51.194;3.800;2022-12-22T09:14:04;127.90;;;51.03;;
22778;SDS011;11556;51.194;3.800;2022-12-22T09:16:31;121.65;;;47.38;;
22778;SDS011;11556;51.194;3.800;2022-12-22T09:18:58;115.88;;;45.13;;
22778;SDS011;11556;51.194;3.800;2022-12-22T09:21:24;106.35;;;42.88;;
22778;SDS011;11556;51.194;3.800;2022-12-22T09:23:50;111.18;;;43.35;;
22778;SDS011;11556;51.194;3.800;2022-12-22T09:26:17;107.13;;;43.15;;
22778;SDS011;11556;51.194;3.800;2022-12-22T09:28:44;112.53;;;43.15;;
22778;SDS011;11556;51.194;3.800;2022-12-22T09:31:10;105.60;;;40.22;;
22778;SDS011;11556;51.194;3.800;2022-12-22T09:33:36;119.30;;;38.95;;
22778;SDS011;11556;51.194;3.800;2022-12-22T09:36:06;106.55;;;37.10;;
22778;SDS011;11556;51.194;3.800;2022-12-22T09:38:33;98.03;;;32.92;;
22778;SDS011;11556;51.194;3.800;2022-12-22T09:41:05;94.72;;;31.73;;
22778;SDS011;11556;51.194;3.800;2022-12-22T09:43:32;94.07;;;35.53;;
22778;SDS011;11556;51.194;3.800;2022-12-22T09:45:57;94.25;;;35.17;;
22778;SDS011;11556;51.194;3.800;2022-12-22T09:48:24;95.45;;;36.22;;
22778;SDS011;11556;51.194;3.800;2022-12-22T09:50:58;94.10;;;36.70;;
22778;SDS011;11556;51.194;3.800;2022-12-22T09:53:24;113.70;;;41.75;;
22778;SDS011;11556;51.194;3.800;2022-12-22T09:55:50;131.55;;;48.88;;
22778;SDS011;11556;51.194;3.800;2022-12-22T10:00:51;131.63;;;51.83;;
22778;SDS011;11556;51.194;3.800;2022-12-22T10:08:34;102.28;;;48.25;;
22778;SDS011;11556;51.194;3.800;2022-12-22T10:11:01;81.40;;;40.95;;
22778;SDS011;11556;51.194;3.800;2022-12-22T10:13:27;79.63;;;39.45;;
22778;SDS011;11556;51.194;3.800;2022-12-22T10:15:52;79.80;;;38.35;;
22778;SDS011;11556;51.194;3.800;2022-12-22T10:18:21;79.93;;;39.42;;
22778;SDS011;11556;51.194;3.800;2022-12-22T10:23:28;73.72;;;37.42;;
22778;SDS011;11556;51.194;3.800;2022-12-22T10:28:22;64.57;;;33.40;;
22778;SDS011;11556;51.194;3.800;2022-12-22T10:30:54;55.50;;;31.52;;
22778;SDS011;11556;51.194;3.800;2022-12-22T10:33:35;51.78;;;29.65;;
22778;SDS011;11556;51.194;3.800;2022-12-22T10:36:03;46.70;;;25.75;;
22778;SDS011;11556;51.194;3.800;2022-12-22T10:41:19;47.00;;;26.30;;
22778;SDS011;11556;51.194;3.800;2022-12-22T10:43:56;40.90;;;25.50;;
22778;SDS011;11556;51.194;3.800;2022-12-22T10:49:17;32.92;;;19.95;;
22778;SDS011;11556;51.194;3.800;2022-12-22T10:51:46;26.10;;;18.10;;
22778;SDS011;11556;51.194;3.800;2022-12-22T10:54:28;26.77;;;17.27;;
22778;SDS011;11556;51.194;3.800;2022-12-22T10:56:59;27.10;;;17.02;;
22778;SDS011;11556;51.194;3.800;2022-12-22T10:59:25;24.00;;;16.42;;
22778;SDS011;11556;51.194;3.800;2022-12-22T11:01:50;24.92;;;16.55;;
22778;SDS011;11556;51.194;3.800;2022-12-22T11:04:23;25.15;;;15.43;;
22778;SDS011;11556;51.194;3.800;2022-12-22T11:06:51;22.77;;;15.60;;
22778;SDS011;11556;51.194;3.800;2022-12-22T11:09:18;26.25;;;15.73;;
22778;SDS011;11556;51.194;3.800;2022-12-22T11:11:48;27.70;;;16.20;;
22778;SDS011;11556;51.194;3.800;2022-12-22T11:14:24;25.10;;;15.35;;
22778;SDS011;11556;51.194;3.800;2022-12-22T11:17:13;23.17;;;14.82;;
22778;SDS011;11556;51.194;3.800;2022-12-22T11:20:15;22.60;;;13.93;;
22778;SDS011;11556;51.194;3.800;2022-12-22T11:22:59;23.20;;;13.00;;
22778;SDS011;11556;51.194;3.800;2022-12-22T11:25:35;23.10;;;13.73;;
22778;SDS011;11556;51.194;3.800;2022-12-22T11:33:34;16.30;;;10.82;;
22778;SDS011;11556;51.194;3.800;2022-12-22T11:36:14;16.63;;;11.43;;
22778;SDS011;11556;51.194;3.800;2022-12-22T11:39:34;16.05;;;11.13;;
22778;SDS011;11556;51.194;3.800;2022-12-22T11:41:45;16.33;;;10.98;;
22778;SDS011;11556;51.194;3.800;2022-12-22T11:44:27;20.23;;;11.05;;
22778;SDS011;11556;51.194;3.800;2022-12-22T11:47:07;16.23;;;9.98;;
22778;SDS011;11556;51.194;3.800;2022-12-22T11:49:43;21.10;;;12.63;;
22778;SDS011;11556;51.194;3.800;2022-12-22T11:58:17;17.45;;;10.10;;
22778;SDS011;11556;51.194;3.800;2022-12-22T12:00:37;16.20;;;11.20;;
22778;SDS011;11556;51.194;3.800;2022-12-22T12:03:21;18.38;;;11.07;;
22778;SDS011;11556;51.194;3.800;2022-12-22T12:06:12;22.55;;;11.73;;
22778;SDS011;11556;51.194;3.800;2022-12-22T12:08:57;23.75;;;12.88;;
22778;SDS011;11556;51.194;3.800;2022-12-22T12:14:27;18.08;;;12.88;;
22778;SDS011;11556;51.194;3.800;2022-12-22T12:22:58;30.80;;;12.85;;
22778;SDS011;11556;51.194;3.800;2022-12-22T12:25:28;31.48;;;13.48;;
22778;SDS011;11556;51.194;3.800;2022-12-22T12:31:11;23.13;;;13.68;;
22778;SDS011;11556;51.194;3.800;2022-12-22T12:33:51;24.42;;;13.45;;
22778;SDS011;11556;51.194;3.800;2022-12-22T12:36:41;25.92;;;11.90;;
22778;SDS011;11556;51.194;3.800;2022-12-22T12:39:40;17.55;;;9.85;;
22778;SDS011;11556;51.194;3.800;2022-12-22T12:42:36;16.60;;;9.77;;
22778;SDS011;11556;51.194;3.800;2022-12-22T12:50:55;13.60;;;8.40;;
22778;SDS011;11556;51.194;3.800;2022-12-22T12:58:59;11.95;;;6.72;;
22778;SDS011;11556;51.194;3.800;2022-12-22T13:01:11;9.98;;;6.95;;
22778;SDS011;11556;51.194;3.800;2022-12-22T13:03:43;12.50;;;7.28;;
22778;SDS011;11556;51.194;3.800;2022-12-22T13:06:10;11.52;;;7.40;;
22778;SDS011;11556;51.194;3.800;2022-12-22T13:11:31;20.38;;;8.00;;
22778;SDS011;11556;51.194;3.800;2022-12-22T13:14:01;8.77;;;7.15;;
22778;SDS011;11556;51.194;3.800;2022-12-22T13:16:28;20.30;;;8.45;;
22778;SDS011;11556;51.194;3.800;2022-12-22T13:18:55;11.48;;;7.93;;
22778;SDS011;11556;51.194;3.800;2022-12-22T13:21:24;13.15;;;8.63;;
22778;SDS011;11556;51.194;3.800;2022-12-22T13:26:21;18.73;;;9.07;;
22778;SDS011;11556;51.194;3.800;2022-12-22T13:31:32;13.55;;;9.63;;
22778;SDS011;11556;51.194;3.800;2022-12-22T13:34:07;21.35;;;10.95;;
22778;SDS011;11556;51.194;3.800;2022-12-22T13:39:39;21.98;;;11.35;;
22778;SDS011;11556;51.194;3.800;2022-12-22T13:42:05;17.13;;;11.38;;
22778;SDS011;11556;51.194;3.800;2022-12-22T13:44:32;22.65;;;12.75;;
22778;SDS011;11556;51.194;3.800;2022-12-22T13:47:02;17.98;;;12.50;;
22778;SDS011;11556;51.194;3.800;2022-12-22T13:51:58;18.35;;;12.88;;
22778;SDS011;11556;51.194;3.800;2022-12-22T13:54:26;21.15;;;13.23;;
22778;SDS011;11556;51.194;3.800;2022-12-22T13:56:57;21.07;;;13.90;;
22778;SDS011;11556;51.194;3.800;2022-12-22T13:59:27;20.70;;;13.60;;
22778;SDS011;11556;51.194;3.800;2022-12-22T14:02:01;24.15;;;14.05;;
22778;SDS011;11556;51.194;3.800;2022-12-22T14:04:33;24.08;;;14.23;;
22778;SDS011;11556;51.194;3.800;2022-12-22T14:07:16;21.55;;;14.15;;
22778;SDS011;11556;51.194;3.800;2022-12-22T14:09:43;23.55;;;13.43;;
22778;SDS011;11556;51.194;3.800;2022-12-22T14:12:19;20.63;;;12.60;;
22778;SDS011;11556;51.194;3.800;2022-12-22T14:14:48;24.67;;;12.38;;
22778;SDS011;11556;51.194;3.800;2022-12-22T14:17:25;24.50;;;13.27;;
22778;SDS011;11556;51.194;3.800;2022-12-22T14:19:59;21.80;;;13.85;;
22778;SDS011;11556;51.194;3.800;2022-12-22T14:25:00;27.23;;;14.32;;
22778;SDS011;11556;51.194;3.800;2022-12-22T14:27:50;24.73;;;14.02;;
22778;SDS011;11556;51.194;3.800;2022-12-22T14:30:21;26.23;;;15.98;;
22778;SDS011;11556;51.194;3.800;2022-12-22T14:32:50;19.50;;;13.25;;
22778;SDS011;11556;51.194;3.800;2022-12-22T14:37:44;24.02;;;13.38;;
22778;SDS011;11556;51.194;3.800;2022-12-22T14:40:53;24.80;;;13.45;;
22778;SDS011;11556;51.194;3.800;2022-12-22T14:43:03;30.73;;;13.38;;
22778;SDS011;11556;51.194;3.800;2022-12-22T14:45:31;30.27;;;13.20;;
22778;SDS011;11556;51.194;3.800;2022-12-22T14:47:57;28.83;;;12.55;;
22778;SDS011;11556;51.194;3.800;2022-12-22T14:50:26;24.98;;;13.48;;
22778;SDS011;11556;51.194;3.800;2022-12-22T14:52:53;25.98;;;12.65;;
22778;SDS011;11556;51.194;3.800;2022-12-22T14:58:02;32.85;;;12.65;;
22778;SDS011;11556;51.194;3.800;2022-12-22T15:03:39;37.20;;;14.30;;
22778;SDS011;11556;51.194;3.800;2022-12-22T15:09:04;27.63;;;13.20;;
22778;SDS011;11556;51.194;3.800;2022-12-22T15:11:35;35.45;;;12.57;;
22778;SDS011;11556;51.194;3.800;2022-12-22T15:14:04;43.45;;;13.80;;
22778;SDS011;11556;51.194;3.800;2022-12-22T15:16:35;34.97;;;10.93;;
22778;SDS011;11556;51.194;3.800;2022-12-22T15:19:03;39.03;;;12.77;;
22778;SDS011;11556;51.194;3.800;2022-12-22T15:21:29;43.05;;;13.80;;
22778;SDS011;11556;51.194;3.800;2022-12-22T15:23:59;39.05;;;10.57;;
22778;SDS011;11556;51.194;3.800;2022-12-22T15:26:25;36.13;;;10.85;;
22778;SDS011;11556;51.194;3.800;2022-12-22T15:28:50;40.58;;;11.70;;
22778;SDS011;11556;51.194;3.800;2022-12-22T15:31:16;41.10;;;13.60;;
22778;SDS011;11556;51.194;3.800;2022-12-22T15:33:42;40.10;;;12.00;;
22778;SDS011;11556;51.194;3.800;2022-12-22T15:36:10;48.67;;;17.33;;
22778;SDS011;11556;51.194;3.800;2022-12-22T15:38:37;45.08;;;15.05;;
22778;SDS011;11556;51.194;3.800;2022-12-22T15:41:04;44.47;;;12.23;;
22778;SDS011;11556;51.194;3.800;2022-12-22T15:43:30;48.35;;;12.50;;
22778;SDS011;11556;51.194;3.800;2022-12-22T15:45:56;51.60;;;12.00;;
22778;SDS011;11556;51.194;3.800;2022-12-22T15:48:32;44.63;;;11.30;;
22778;SDS011;11556;51.194;3.800;2022-12-22T15:50:59;49.45;;;16.02;;
22778;SDS011;11556;51.194;3.800;2022-12-22T15:53:28;45.20;;;14.27;;
22778;SDS011;11556;51.194;3.800;2022-12-22T15:55:55;53.88;;;20.98;;
22778;SDS011;11556;51.194;3.800;2022-12-22T15:58:23;52.80;;;19.33;;
22778;SDS011;11556;51.194;3.800;2022-12-22T16:00:51;43.95;;;15.80;;
22778;SDS011;11556;51.194;3.800;2022-12-22T16:03:16;50.08;;;21.00;;
22778;SDS011;11556;51.194;3.800;2022-12-22T16:05:42;41.80;;;14.10;;
22778;SDS011;11556;51.194;3.800;2022-12-22T16:08:13;39.28;;;14.13;;
22778;SDS011;11556;51.194;3.800;2022-12-22T16:10:41;34.00;;;11.35;;
22778;SDS011;11556;51.194;3.800;2022-12-22T16:13:08;32.17;;;11.70;;
22778;SDS011;11556;51.194;3.800;2022-12-22T16:15:36;41.67;;;11.95;;
22778;SDS011;11556;51.194;3.800;2022-12-22T16:18:02;38.17;;;10.52;;
22778;SDS011;11556;51.194;3.800;2022-12-22T16:20:30;36.20;;;10.52;;
22778;SDS011;11556;51.194;3.800;2022-12-22T16:23:01;38.65;;;10.88;;
22778;SDS011;11556;51.194;3.800;2022-12-22T16:25:32;36.97;;;10.57;;
22778;SDS011;11556;51.194;3.800;2022-12-22T16:27:59;39.40;;;9.65;;